METAR Data

Data at: 1749 UTC 21 Nov 2018

METAR for:KWST (Westerly State Arpt, RI, US)
Text:KWST 211653Z AUTO 25011G18KT 10SM OVC090 06/M02 A2996 RMK AO2 SLP146 T00561022
Temperature: 5.6°C ( 42°F)
Dewpoint: -2.2°C ( 28°F) [RH = 57%]
Pressure (altimeter):29.96 inches Hg (1014.6 mb) [Sea level pressure: 1014.6 mb]
Winds:from the WSW (250 degrees) at 13 MPH (11 knots; 5.7 m/s) gusting to 21 MPH (18 knots; 9.3 m/s)
Visibility:10 or more sm (16+ km)
Ceiling:9000 feet AGL
Clouds: overcast cloud deck at 9000 feet AGL
QC Flag:automated observation with no human augmentation